Time;durP1;ratioP1;P1;durP2;ratioP2;P2;SDS_P1;SDS_P2;PMS_P1;PMS_P2;Temp;Humidity;BMP_temperature;BMP_pressure;BME280_temperature;BME280_humidity;BME280_pressure;Samples;Min_cycle;Max_cycle;Signal;HPM_P1;HPM_P2
2024/02/27 00:00:17;;;;;;;14.50;11.63;;;;;;;;;;704134;28;952;-67
2024/02/27 00:00:38;;;;;;;14.82;11.75;;;;;;;;;;702636;28;1913;-66
2024/02/27 00:00:58;;;;;;;15.73;11.60;;;;;;;;;;703894;28;900;-68
2024/02/27 00:01:18;;;;;;;15.07;11.37;;;;;;;;;;702474;28;4408;-68
2024/02/27 00:01:38;;;;;;;15.02;10.98;;;;;;;;;;704566;28;865;-65
2024/02/27 00:01:59;;;;;;;16.00;11.77;;;;;;;;;;705924;28;923;-66
2024/02/27 00:02:20;;;;;;;15.30;12.32;;;;;;;;;;702920;28;1602;-66
2024/02/27 00:02:40;;;;;;;13.77;11.23;;;;;;;;;;702804;28;883;-66
2024/02/27 00:03:01;;;;;;;14.38;11.27;;;;;;;;;;701616;28;1383;-66
2024/02/27 00:03:22;;;;;;;14.32;11.38;;;;;;;;;;701224;28;1002;-66
2024/02/27 00:03:42;;;;;;;14.33;11.80;;;;;;;;;;700448;28;891;-66
2024/02/27 00:04:02;;;;;;;15.25;11.68;;;;;;;;;;700474;28;978;-66
2024/02/27 00:04:23;;;;;;;15.03;11.97;;;;;;;;;;698530;28;4477;-66
2024/02/27 00:04:43;;;;;;;15.20;11.80;;;;;;;;;;702963;28;1531;-66
2024/02/27 00:05:03;;;;;;;14.70;11.40;;;;;;;;;;702703;28;853;-66
2024/02/27 00:05:25;;;;;;;15.90;12.10;;;;;;;;;;699962;28;1493;-67
2024/02/27 00:05:45;;;;;;;15.52;12.00;;;;;;;;;;701918;28;1281;-68
2024/02/27 00:06:07;;;;;;;14.43;11.73;;;;;;;;;;701137;28;1387;-66
2024/02/27 00:06:30;;;;;;;15.63;12.38;;;;;;;;;;698274;28;2143;-67
2024/02/27 00:06:51;;;;;;;16.02;12.57;;;;;;;;;;702942;28;840;-66
2024/02/27 00:07:11;;;;;;;16.83;12.25;;;;;;;;;;704943;28;821;-66
2024/02/27 00:07:32;;;;;;;15.07;11.90;;;;;;;;;;701510;28;4263;-67
2024/02/27 00:07:52;;;;;;;16.00;12.13;;;;;;;;;;704740;28;1324;-66
2024/02/27 00:08:12;;;;;;;16.17;11.80;;;;;;;;;;704584;28;940;-65
2024/02/27 00:08:33;;;;;;;15.50;11.93;;;;;;;;;;702810;28;5347;-65
2024/02/27 00:08:54;;;;;;;15.68;12.30;;;;;;;;;;704093;28;959;-65
2024/02/27 00:09:17;;;;;;;15.20;12.23;;;;;;;;;;704065;28;4425;-66
2024/02/27 00:09:38;;;;;;;16.33;12.73;;;;;;;;;;701837;28;1754;-66
2024/02/27 00:09:58;;;;;;;16.67;12.73;;;;;;;;;;704402;28;1258;-65
2024/02/27 00:10:18;;;;;;;15.67;12.33;;;;;;;;;;700208;28;4413;-66
2024/02/27 00:10:39;;;;;;;15.80;12.20;;;;;;;;;;704123;28;1053;-66
2024/02/27 00:11:01;;;;;;;15.13;12.10;;;;;;;;;;704342;28;1371;-66
2024/02/27 00:11:21;;;;;;;15.57;12.25;;;;;;;;;;703405;28;1762;-66
2024/02/27 00:11:43;;;;;;;16.83;12.97;;;;;;;;;;705275;28;922;-65
2024/02/27 00:12:03;;;;;;;14.95;12.50;;;;;;;;;;702396;28;895;-66
2024/02/27 00:12:25;;;;;;;14.82;12.35;;;;;;;;;;702180;28;1095;-65
2024/02/27 00:12:46;;;;;;;15.48;12.27;;;;;;;;;;703212;28;1010;-66
2024/02/27 00:13:06;;;;;;;15.90;12.37;;;;;;;;;;702703;28;919;-65
2024/02/27 00:13:26;;;;;;;15.97;11.83;;;;;;;;;;698757;28;4309;-65
2024/02/27 00:13:46;;;;;;;16.05;12.35;;;;;;;;;;701869;28;761;-67
2024/02/27 00:14:07;;;;;;;17.13;12.87;;;;;;;;;;700742;28;1308;-65
2024/02/27 00:14:27;;;;;;;14.87;11.80;;;;;;;;;;699121;28;2087;-66
2024/02/27 00:14:47;;;;;;;15.83;12.47;;;;;;;;;;698641;28;825;-66
2024/02/27 00:15:08;;;;;;;16.23;12.27;;;;;;;;;;701196;28;903;-66
2024/02/27 00:15:28;;;;;;;16.17;12.50;;;;;;;;;;700323;28;2383;-66
2024/02/27 00:15:48;;;;;;;15.37;12.10;;;;;;;;;;701707;28;1340;-66
2024/02/27 00:16:09;;;;;;;16.10;12.20;;;;;;;;;;699394;28;1397;-65
2024/02/27 00:16:29;;;;;;;17.33;13.30;;;;;;;;;;697488;28;4509;-67
2024/02/27 00:16:49;;;;;;;17.93;13.03;;;;;;;;;;701410;28;839;-66
2024/02/27 00:17:09;;;;;;;16.00;12.63;;;;;;;;;;702062;28;887;-66
2024/02/27 00:17:30;;;;;;;18.05;13.27;;;;;;;;;;699925;28;1898;-65
2024/02/27 00:17:50;;;;;;;17.47;12.93;;;;;;;;;;702210;28;829;-66
2024/02/27 00:18:13;;;;;;;17.93;13.20;;;;;;;;;;704831;28;730;-65
2024/02/27 00:18:33;;;;;;;17.60;13.15;;;;;;;;;;700669;28;1769;-66
2024/02/27 00:18:54;;;;;;;16.60;12.60;;;;;;;;;;704757;28;817;-66
2024/02/27 00:19:14;;;;;;;16.70;12.47;;;;;;;;;;703579;28;4525;-65
2024/02/27 00:19:35;;;;;;;16.02;12.43;;;;;;;;;;702948;28;1651;-66
2024/02/27 00:19:55;;;;;;;15.73;11.97;;;;;;;;;;706141;28;872;-65
2024/02/27 00:20:16;;;;;;;16.20;12.43;;;;;;;;;;705359;28;938;-66
2024/02/27 00:20:37;;;;;;;16.48;13.15;;;;;;;;;;702943;28;1161;-66
2024/02/27 00:20:57;;;;;;;16.03;12.93;;;;;;;;;;703835;28;1968;-66
2024/02/27 00:21:17;;;;;;;16.58;12.88;;;;;;;;;;704229;28;887;-66
2024/02/27 00:21:37;;;;;;;15.63;12.67;;;;;;;;;;699936;28;1496;-66
2024/02/27 00:21:58;;;;;;;17.97;13.07;;;;;;;;;;701256;28;860;-65
2024/02/27 00:22:18;;;;;;;18.88;13.43;;;;;;;;;;701389;28;4351;-66
2024/02/27 00:22:39;;;;;;;16.23;12.97;;;;;;;;;;700304;28;959;-66
2024/02/27 00:22:59;;;;;;;16.48;12.80;;;;;;;;;;701338;28;1195;-65
2024/02/27 00:23:19;;;;;;;16.70;12.93;;;;;;;;;;700426;28;2559;-67
2024/02/27 00:23:39;;;;;;;17.37;13.40;;;;;;;;;;705451;28;975;-65
2024/02/27 00:24:00;;;;;;;17.97;13.00;;;;;;;;;;704186;28;1228;-67
2024/02/27 00:24:20;;;;;;;17.87;13.10;;;;;;;;;;703529;28;1196;-66
2024/02/27 00:24:40;;;;;;;16.53;12.73;;;;;;;;;;704172;28;749;-67
2024/02/27 00:25:01;;;;;;;16.25;13.20;;;;;;;;;;703873;28;904;-65
2024/02/27 00:25:22;;;;;;;17.53;12.77;;;;;;;;;;698020;28;4252;-66
2024/02/27 00:25:42;;;;;;;18.50;13.13;;;;;;;;;;701289;28;1511;-66
2024/02/27 00:26:03;;;;;;;16.88;12.80;;;;;;;;;;702025;28;990;-65
2024/02/27 00:26:23;;;;;;;18.50;13.13;;;;;;;;;;699058;28;2232;-66
2024/02/27 00:26:43;;;;;;;18.40;13.70;;;;;;;;;;700724;28;928;-66
2024/02/27 00:27:04;;;;;;;16.90;13.50;;;;;;;;;;701680;28;1353;-66
2024/02/27 00:27:24;;;;;;;17.57;13.43;;;;;;;;;;703279;28;1734;-66
2024/02/27 00:27:44;;;;;;;17.20;13.40;;;;;;;;;;704385;28;981;-66
2024/02/27 00:28:05;;;;;;;17.47;13.67;;;;;;;;;;704583;28;891;-66
2024/02/27 00:28:25;;;;;;;17.07;13.47;;;;;;;;;;702305;28;4417;-66
2024/02/27 00:28:45;;;;;;;16.15;12.68;;;;;;;;;;703857;28;1138;-66
2024/02/27 00:29:05;;;;;;;17.40;13.00;;;;;;;;;;703589;28;796;-66
2024/02/27 00:29:26;;;;;;;17.07;13.10;;;;;;;;;;699864;28;1791;-66
2024/02/27 00:29:46;;;;;;;18.77;13.68;;;;;;;;;;700069;28;915;-66
2024/02/27 00:30:07;;;;;;;18.30;13.27;;;;;;;;;;701778;28;790;-66
2024/02/27 00:30:27;;;;;;;17.48;13.32;;;;;;;;;;697255;28;2528;-66
2024/02/27 00:30:47;;;;;;;16.70;13.37;;;;;;;;;;697754;28;2103;-66
2024/02/27 00:31:07;;;;;;;18.40;13.93;;;;;;;;;;698123;28;1359;-66
2024/02/27 00:31:28;;;;;;;17.47;13.10;;;;;;;;;;698465;28;5037;-65
2024/02/27 00:31:48;;;;;;;16.83;12.47;;;;;;;;;;700077;28;844;-67
2024/02/27 00:32:08;;;;;;;16.70;13.13;;;;;;;;;;701576;28;900;-65
2024/02/27 00:32:28;;;;;;;16.20;13.07;;;;;;;;;;703191;28;966;-66
2024/02/27 00:32:49;;;;;;;16.43;13.10;;;;;;;;;;703455;28;1215;-66
2024/02/27 00:33:09;;;;;;;16.33;12.97;;;;;;;;;;704004;28;5318;-66
2024/02/27 00:33:29;;;;;;;17.25;13.00;;;;;;;;;;701656;28;1484;-67
2024/02/27 00:33:50;;;;;;;17.43;13.50;;;;;;;;;;704460;28;1491;-68
2024/02/27 00:34:10;;;;;;;18.80;14.20;;;;;;;;;;701337;28;1076;-66
2024/02/27 00:34:30;;;;;;;18.57;13.23;;;;;;;;;;698576;28;4394;-65
2024/02/27 00:34:50;;;;;;;17.53;13.30;;;;;;;;;;701480;28;837;-66
2024/02/27 00:35:11;;;;;;;17.80;13.33;;;;;;;;;;701026;28;1057;-66
2024/02/27 00:35:34;;;;;;;18.43;13.63;;;;;;;;;;699372;28;2185;-66
2024/02/27 00:35:54;;;;;;;17.60;13.48;;;;;;;;;;701113;28;908;-67
2024/02/27 00:36:14;;;;;;;16.27;13.10;;;;;;;;;;705307;28;919;-65
2024/02/27 00:36:34;;;;;;;16.93;12.77;;;;;;;;;;703180;28;1248;-65
2024/02/27 00:36:55;;;;;;;17.30;13.32;;;;;;;;;;703760;28;1020;-65
2024/02/27 00:37:15;;;;;;;16.93;13.57;;;;;;;;;;704019;28;4337;-65
2024/02/27 00:37:35;;;;;;;19.37;14.10;;;;;;;;;;703478;28;1807;-66
2024/02/27 00:37:56;;;;;;;19.30;13.88;;;;;;;;;;704275;28;912;-65
2024/02/27 00:38:16;;;;;;;18.23;13.40;;;;;;;;;;703271;28;1384;-65
2024/02/27 00:38:36;;;;;;;18.37;13.53;;;;;;;;;;701884;28;1831;-65
2024/02/27 00:38:57;;;;;;;17.43;13.13;;;;;;;;;;703474;28;1073;-65
2024/02/27 00:39:17;;;;;;;16.75;13.25;;;;;;;;;;704905;28;974;-65
2024/02/27 00:39:37;;;;;;;17.43;13.50;;;;;;;;;;702897;28;1754;-65
2024/02/27 00:39:58;;;;;;;17.83;13.60;;;;;;;;;;703894;28;1374;-66
2024/02/27 00:40:18;;;;;;;17.33;13.53;;;;;;;;;;703248;28;4280;-67
2024/02/27 00:40:38;;;;;;;17.88;13.45;;;;;;;;;;702873;28;2531;-65
2024/02/27 00:41:01;;;;;;;18.03;13.53;;;;;;;;;;704111;28;1341;-64
2024/02/27 00:41:21;;;;;;;17.27;12.68;;;;;;;;;;702543;28;1864;-66
2024/02/27 00:41:42;;;;;;;16.40;12.47;;;;;;;;;;703976;28;1343;-64
2024/02/27 00:42:03;;;;;;;16.63;12.98;;;;;;;;;;704749;28;904;-66
2024/02/27 00:42:23;;;;;;;16.65;13.35;;;;;;;;;;702436;28;2286;-64
2024/02/27 00:42:44;;;;;;;18.45;14.13;;;;;;;;;;701535;28;921;-65
2024/02/27 00:43:04;;;;;;;17.93;13.40;;;;;;;;;;701375;28;1288;-65
2024/02/27 00:43:24;;;;;;;18.47;13.10;;;;;;;;;;698514;28;4386;-65
2024/02/27 00:43:45;;;;;;;16.97;13.00;;;;;;;;;;700819;28;1500;-65
2024/02/27 00:44:07;;;;;;;16.30;13.43;;;;;;;;;;701465;28;798;-65
2024/02/27 00:44:27;;;;;;;16.27;13.38;;;;;;;;;;699106;28;2584;-65
2024/02/27 00:44:47;;;;;;;15.73;12.98;;;;;;;;;;704109;28;1348;-65
2024/02/27 00:45:08;;;;;;;16.20;13.20;;;;;;;;;;702710;28;789;-65
2024/02/27 00:45:28;;;;;;;17.17;13.43;;;;;;;;;;698718;28;1909;-66
2024/02/27 00:45:48;;;;;;;17.52;13.23;;;;;;;;;;700875;28;884;-65
2024/02/27 00:46:09;;;;;;;16.40;12.67;;;;;;;;;;701357;28;749;-64
2024/02/27 00:46:29;;;;;;;16.75;12.85;;;;;;;;;;699761;28;4406;-66
2024/02/27 00:46:49;;;;;;;16.77;12.80;;;;;;;;;;701936;28;955;-66
2024/02/27 00:47:09;;;;;;;17.80;13.93;;;;;;;;;;701137;28;1127;-65
2024/02/27 00:47:29;;;;;;;18.20;13.87;;;;;;;;;;699083;28;1724;-65
2024/02/27 00:47:50;;;;;;;17.58;13.32;;;;;;;;;;700865;28;1443;-65
2024/02/27 00:48:10;;;;;;;17.73;13.90;;;;;;;;;;701712;28;955;-65
2024/02/27 00:48:30;;;;;;;16.90;13.13;;;;;;;;;;699831;28;2117;-65
2024/02/27 00:48:51;;;;;;;16.70;12.87;;;;;;;;;;701365;28;1132;-65
2024/02/27 00:49:11;;;;;;;17.73;13.47;;;;;;;;;;702654;27;851;-64
2024/02/27 00:49:31;;;;;;;17.07;13.30;;;;;;;;;;703733;27;4484;-66
2024/02/27 00:49:51;;;;;;;17.25;13.10;;;;;;;;;;706148;27;849;-65
2024/02/27 00:50:12;;;;;;;17.53;13.40;;;;;;;;;;705908;27;854;-65
2024/02/27 00:50:32;;;;;;;17.00;13.53;;;;;;;;;;703811;27;1693;-65
2024/02/27 00:50:52;;;;;;;16.60;13.40;;;;;;;;;;704289;28;963;-65
2024/02/27 00:51:13;;;;;;;16.70;13.43;;;;;;;;;;704301;27;1462;-65
2024/02/27 00:51:33;;;;;;;17.23;13.75;;;;;;;;;;701538;27;1437;-66
2024/02/27 00:51:53;;;;;;;16.50;13.27;;;;;;;;;;704234;27;950;-65
2024/02/27 00:52:14;;;;;;;17.40;13.33;;;;;;;;;;704326;27;4454;-66
2024/02/27 00:52:36;;;;;;;17.30;12.85;;;;;;;;;;700140;28;1143;-66
2024/02/27 00:52:56;;;;;;;16.77;12.95;;;;;;;;;;702408;28;983;-66
2024/02/27 00:53:19;;;;;;;17.43;13.67;;;;;;;;;;699536;28;804;-65
2024/02/27 00:53:40;;;;;;;17.48;13.15;;;;;;;;;;695120;28;1754;-65
2024/02/27 00:54:00;;;;;;;17.50;12.90;;;;;;;;;;694555;28;770;-65
2024/02/27 00:54:20;;;;;;;17.97;13.77;;;;;;;;;;696236;28;1455;-65
2024/02/27 00:54:40;;;;;;;18.30;13.73;;;;;;;;;;698614;28;1525;-65
2024/02/27 00:55:01;;;;;;;18.03;13.30;;;;;;;;;;698964;28;857;-65
2024/02/27 00:55:21;;;;;;;17.10;13.20;;;;;;;;;;700625;28;4700;-66
2024/02/27 00:55:41;;;;;;;15.63;12.45;;;;;;;;;;702462;28;837;-65
2024/02/27 00:56:02;;;;;;;16.10;12.70;;;;;;;;;;702540;28;1386;-65
2024/02/27 00:56:22;;;;;;;17.65;13.57;;;;;;;;;;701065;28;2198;-65
2024/02/27 00:56:42;;;;;;;16.93;12.97;;;;;;;;;;701283;28;850;-65
2024/02/27 00:57:03;;;;;;;16.80;13.10;;;;;;;;;;701710;28;1322;-66
2024/02/27 00:57:23;;;;;;;16.48;13.25;;;;;;;;;;700587;28;2351;-66
2024/02/27 00:57:43;;;;;;;17.47;13.17;;;;;;;;;;703801;27;1649;-65
2024/02/27 00:58:04;;;;;;;18.13;13.23;;;;;;;;;;703303;27;876;-63
2024/02/27 00:58:26;;;;;;;17.67;12.63;;;;;;;;;;700659;28;4408;-65
2024/02/27 00:58:46;;;;;;;17.08;13.18;;;;;;;;;;702397;28;1201;-65
2024/02/27 00:59:06;;;;;;;17.73;14.37;;;;;;;;;;701780;28;1419;-65
2024/02/27 00:59:27;;;;;;;18.10;14.20;;;;;;;;;;701245;28;2393;-64
2024/02/27 00:59:47;;;;;;;17.60;13.93;;;;;;;;;;701730;28;798;-66
2024/02/27 01:00:08;;;;;;;17.00;13.32;;;;;;;;;;703189;28;888;-66
2024/02/27 01:00:29;;;;;;;17.70;13.77;;;;;;;;;;701373;27;1724;-65
2024/02/27 01:00:49;;;;;;;16.60;13.03;;;;;;;;;;700595;28;1914;-65
2024/02/27 01:01:10;;;;;;;16.88;13.32;;;;;;;;;;703666;28;916;-65
2024/02/27 01:01:30;;;;;;;17.07;13.30;;;;;;;;;;699699;28;4326;-65
2024/02/27 01:01:50;;;;;;;16.30;13.15;;;;;;;;;;701877;28;808;-65
2024/02/27 01:02:11;;;;;;;16.93;12.93;;;;;;;;;;700954;28;2352;-65
2024/02/27 01:02:31;;;;;;;17.60;13.37;;;;;;;;;;696694;28;2257;-65
2024/02/27 01:02:51;;;;;;;16.90;13.00;;;;;;;;;;702495;28;912;-65
2024/02/27 01:03:11;;;;;;;16.70;12.57;;;;;;;;;;702871;28;813;-65
2024/02/27 01:03:32;;;;;;;16.43;12.27;;;;;;;;;;700197;28;2365;-65
2024/02/27 01:03:52;;;;;;;16.58;13.07;;;;;;;;;;701150;28;1305;-66
2024/02/27 01:04:12;;;;;;;17.97;13.20;;;;;;;;;;702514;28;920;-65
2024/02/27 01:04:32;;;;;;;17.37;13.20;;;;;;;;;;703695;27;4323;-65
2024/02/27 01:04:53;;;;;;;16.05;12.63;;;;;;;;;;705020;27;5486;-65
2024/02/27 01:05:13;;;;;;;16.43;12.93;;;;;;;;;;705863;27;3887;-65
2024/02/27 01:05:33;;;;;;;17.03;12.97;;;;;;;;;;702164;28;2102;-66
2024/02/27 01:05:53;;;;;;;16.47;13.37;;;;;;;;;;706140;27;845;-65
2024/02/27 01:06:14;;;;;;;15.80;12.63;;;;;;;;;;703951;28;1321;-65
2024/02/27 01:06:34;;;;;;;17.23;12.93;;;;;;;;;;700439;28;1737;-65
2024/02/27 01:06:54;;;;;;;17.83;12.90;;;;;;;;;;703945;28;800;-65
2024/02/27 01:07:15;;;;;;;17.80;12.87;;;;;;;;;;702002;28;4335;-65
2024/02/27 01:07:35;;;;;;;17.17;13.23;;;;;;;;;;698423;28;1782;-65
2024/02/27 01:07:55;;;;;;;18.17;13.48;;;;;;;;;;704089;27;809;-65
2024/02/27 01:08:16;;;;;;;17.57;13.40;;;;;;;;;;704609;27;892;-65
2024/02/27 01:08:36;;;;;;;17.55;12.88;;;;;;;;;;699297;28;1968;-65
2024/02/27 01:08:56;;;;;;;16.90;13.13;;;;;;;;;;699341;28;1332;-66
2024/02/27 01:09:16;;;;;;;16.03;12.63;;;;;;;;;;703425;28;1547;-66
2024/02/27 01:09:37;;;;;;;16.98;12.70;;;;;;;;;;700574;28;2148;-65
2024/02/27 01:09:57;;;;;;;15.77;12.23;;;;;;;;;;701838;28;908;-65
2024/02/27 01:10:18;;;;;;;15.07;12.30;;;;;;;;;;702105;28;4563;-64
2024/02/27 01:10:38;;;;;;;16.70;12.70;;;;;;;;;;703202;27;2186;-65
2024/02/27 01:10:58;;;;;;;16.87;12.47;;;;;;;;;;702887;27;1540;-65
2024/02/27 01:11:19;;;;;;;16.02;12.25;;;;;;;;;;704916;27;1056;-65
2024/02/27 01:11:39;;;;;;;16.17;12.30;;;;;;;;;;702996;27;1741;-65
2024/02/27 01:11:59;;;;;;;17.33;12.63;;;;;;;;;;704586;27;978;-65
2024/02/27 01:12:19;;;;;;;16.30;12.40;;;;;;;;;;705701;27;939;-66
2024/02/27 01:12:40;;;;;;;16.90;12.93;;;;;;;;;;703650;27;1531;-65
2024/02/27 01:13:00;;;;;;;16.53;12.83;;;;;;;;;;697623;28;4909;-64
2024/02/27 01:13:20;;;;;;;16.20;12.77;;;;;;;;;;698120;28;4410;-66
2024/02/27 01:13:41;;;;;;;16.17;12.40;;;;;;;;;;698498;28;2288;-65
2024/02/27 01:14:01;;;;;;;16.30;12.37;;;;;;;;;;698091;28;853;-65
2024/02/27 01:14:21;;;;;;;15.82;12.07;;;;;;;;;;700556;28;928;-65
2024/02/27 01:14:42;;;;;;;16.53;12.30;;;;;;;;;;696815;28;1223;-65
2024/02/27 01:15:03;;;;;;;16.10;12.23;;;;;;;;;;703305;27;993;-65
2024/02/27 01:15:23;;;;;;;15.32;11.82;;;;;;;;;;703541;27;1739;-66
2024/02/27 01:15:43;;;;;;;16.00;11.70;;;;;;;;;;706036;27;966;-65
2024/02/27 01:16:04;;;;;;;16.37;11.97;;;;;;;;;;702107;28;936;-64
2024/02/27 01:16:24;;;;;;;16.70;12.00;;;;;;;;;;699840;28;4440;-65
2024/02/27 01:16:44;;;;;;;17.27;12.00;;;;;;;;;;700714;28;1300;-64
2024/02/27 01:17:05;;;;;;;17.55;12.57;;;;;;;;;;698548;28;1113;-65
2024/02/27 01:17:25;;;;;;;17.93;12.57;;;;;;;;;;697599;28;2017;-64
2024/02/27 01:17:46;;;;;;;17.13;12.47;;;;;;;;;;698914;28;852;-66
2024/02/27 01:18:06;;;;;;;16.08;12.18;;;;;;;;;;699793;28;916;-64
2024/02/27 01:18:26;;;;;;;16.07;12.87;;;;;;;;;;697156;28;2288;-64
2024/02/27 01:18:47;;;;;;;17.03;12.47;;;;;;;;;;700121;28;928;-64
2024/02/27 01:19:08;;;;;;;17.83;12.53;;;;;;;;;;701073;28;848;-66
2024/02/27 01:19:28;;;;;;;16.45;12.23;;;;;;;;;;698395;28;4525;-65
2024/02/27 01:19:48;;;;;;;16.30;12.40;;;;;;;;;;702315;28;865;-65
2024/02/27 01:20:09;;;;;;;16.40;12.60;;;;;;;;;;704622;27;888;-65
2024/02/27 01:20:29;;;;;;;17.55;13.07;;;;;;;;;;702864;27;1740;-65
2024/02/27 01:20:49;;;;;;;16.53;12.60;;;;;;;;;;706096;27;1964;-65
2024/02/27 01:21:10;;;;;;;15.37;11.87;;;;;;;;;;701596;28;1242;-65
2024/02/27 01:21:30;;;;;;;17.23;12.70;;;;;;;;;;700048;28;1770;-65
2024/02/27 01:21:50;;;;;;;18.03;12.90;;;;;;;;;;701886;28;876;-65
2024/02/27 01:22:11;;;;;;;16.87;12.20;;;;;;;;;;703120;28;817;-65
2024/02/27 01:22:33;;;;;;;17.50;12.35;;;;;;;;;;700526;28;4421;-64
2024/02/27 01:22:53;;;;;;;17.40;12.77;;;;;;;;;;701899;28;1446;-64
2024/02/27 01:23:13;;;;;;;16.93;12.83;;;;;;;;;;701307;28;1160;-65
2024/02/27 01:23:34;;;;;;;17.90;12.70;;;;;;;;;;699176;28;1460;-65
2024/02/27 01:23:54;;;;;;;18.57;12.77;;;;;;;;;;701614;28;1172;-64
2024/02/27 01:24:14;;;;;;;17.70;12.93;;;;;;;;;;702594;28;1375;-64
2024/02/27 01:24:35;;;;;;;17.45;13.20;;;;;;;;;;699681;27;1787;-65
2024/02/27 01:24:56;;;;;;;17.27;13.00;;;;;;;;;;705979;27;825;-64
2024/02/27 01:25:16;;;;;;;17.73;13.45;;;;;;;;;;705366;27;4364;-64
2024/02/27 01:25:37;;;;;;;17.67;13.65;;;;;;;;;;703154;27;1810;-64
2024/02/27 01:25:57;;;;;;;17.10;13.27;;;;;;;;;;701926;28;1538;-65
2024/02/27 01:26:17;;;;;;;17.55;13.35;;;;;;;;;;702058;28;885;-65
2024/02/27 01:26:37;;;;;;;18.93;13.87;;;;;;;;;;700277;28;2097;-65
2024/02/27 01:26:58;;;;;;;18.50;13.60;;;;;;;;;;701325;28;782;-65
2024/02/27 01:27:18;;;;;;;18.10;12.75;;;;;;;;;;701425;28;2118;-65
2024/02/27 01:27:38;;;;;;;17.43;13.17;;;;;;;;;;700478;28;2019;-64
2024/02/27 01:27:59;;;;;;;17.73;13.40;;;;;;;;;;699033;28;1334;-65
2024/02/27 01:28:19;;;;;;;17.60;13.45;;;;;;;;;;700448;28;4397;-65
2024/02/27 01:28:39;;;;;;;16.83;12.90;;;;;;;;;;697080;28;1778;-65
2024/02/27 01:29:00;;;;;;;16.07;12.27;;;;;;;;;;699174;28;864;-65
2024/02/27 01:29:20;;;;;;;18.00;13.00;;;;;;;;;;698870;28;781;-65
2024/02/27 01:29:40;;;;;;;17.90;12.97;;;;;;;;;;697754;28;5232;-65
2024/02/27 01:30:00;;;;;;;18.33;13.20;;;;;;;;;;702942;28;779;-65
2024/02/27 01:30:21;;;;;;;18.30;13.43;;;;;;;;;;702366;28;868;-64
2024/02/27 01:30:41;;;;;;;18.50;13.27;;;;;;;;;;699934;28;1541;-66
2024/02/27 01:31:02;;;;;;;18.40;13.10;;;;;;;;;;700490;28;1371;-64
2024/02/27 01:31:23;;;;;;;17.90;13.18;;;;;;;;;;696925;28;4488;-66
2024/02/27 01:31:44;;;;;;;18.15;13.38;;;;;;;;;;698596;28;786;-66
2024/02/27 01:32:08;;;;;;;18.75;13.48;;;;;;;;;;699370;28;924;-65
2024/02/27 01:32:28;;;;;;;19.00;13.20;;;;;;;;;;699976;28;1772;-66
2024/02/27 01:32:48;;;;;;;18.90;13.50;;;;;;;;;;699331;28;1269;-67
2024/02/27 01:33:09;;;;;;;19.10;13.43;;;;;;;;;;701315;28;1133;-66
2024/02/27 01:33:29;;;;;;;18.80;13.75;;;;;;;;;;701303;28;1980;-66
2024/02/27 01:33:49;;;;;;;17.77;13.33;;;;;;;;;;698247;28;1475;-66
2024/02/27 01:34:11;;;;;;;19.38;13.38;;;;;;;;;;697422;28;1428;-65
2024/02/27 01:34:31;;;;;;;18.38;13.43;;;;;;;;;;694515;28;4340;-65
2024/02/27 01:34:52;;;;;;;17.83;12.73;;;;;;;;;;699245;28;793;-66
2024/02/27 01:35:12;;;;;;;18.70;13.40;;;;;;;;;;700505;28;805;-65
2024/02/27 01:35:33;;;;;;;18.90;13.82;;;;;;;;;;698869;28;1973;-66
2024/02/27 01:35:53;;;;;;;18.50;14.23;;;;;;;;;;702843;28;1363;-65
2024/02/27 01:36:13;;;;;;;18.43;13.80;;;;;;;;;;706005;27;889;-65
2024/02/27 01:36:33;;;;;;;17.85;13.25;;;;;;;;;;703746;27;1742;-65
2024/02/27 01:36:54;;;;;;;17.53;13.07;;;;;;;;;;704263;27;888;-67
2024/02/27 01:37:14;;;;;;;16.83;13.27;;;;;;;;;;704344;27;4548;-65
2024/02/27 01:37:34;;;;;;;18.33;13.48;;;;;;;;;;702042;27;1723;-65
2024/02/27 01:37:56;;;;;;;18.67;13.73;;;;;;;;;;705355;27;817;-65
2024/02/27 01:38:16;;;;;;;18.35;13.20;;;;;;;;;;705259;27;928;-66
2024/02/27 01:38:37;;;;;;;19.10;13.20;;;;;;;;;;702920;27;1734;-66
2024/02/27 01:38:57;;;;;;;18.70;12.83;;;;;;;;;;704643;27;1140;-65
2024/02/27 01:39:17;;;;;;;17.67;12.77;;;;;;;;;;704912;27;1296;-65
2024/02/27 01:39:38;;;;;;;18.33;13.73;;;;;;;;;;703470;27;1268;-66
2024/02/27 01:39:58;;;;;;;17.80;13.03;;;;;;;;;;706081;27;857;-65
2024/02/27 01:40:18;;;;;;;17.93;13.30;;;;;;;;;;704584;27;4522;-65
2024/02/27 01:40:38;;;;;;;17.60;13.67;;;;;;;;;;704029;27;1805;-66
2024/02/27 01:40:59;;;;;;;16.47;13.30;;;;;;;;;;705471;27;1941;-65
2024/02/27 01:41:19;;;;;;;18.33;13.90;;;;;;;;;;702953;28;928;-65
2024/02/27 01:41:40;;;;;;;17.93;13.63;;;;;;;;;;699605;28;1772;-66
2024/02/27 01:42:00;;;;;;;18.60;13.40;;;;;;;;;;700215;28;833;-66
2024/02/27 01:42:20;;;;;;;18.20;13.75;;;;;;;;;;700590;28;1305;-65
2024/02/27 01:42:47;;;;;;;19.43;14.03;;;;;;;;;;700106;28;1081;-65
2024/02/27 01:43:23;;;;;;;19.45;14.32;;;;;;;;;;699629;28;1158;-65
2024/02/27 01:43:43;;;;;;;19.10;13.85;;;;;;;;;;700846;28;4833;-64
2024/02/27 01:44:03;;;;;;;18.13;13.83;;;;;;;;;;700555;28;1343;-65
2024/02/27 01:44:23;;;;;;;19.13;13.97;;;;;;;;;;701819;28;797;-66
2024/02/27 01:44:48;;;;;;;18.40;13.40;;;;;;;;;;701485;28;2253;-66
2024/02/27 01:45:13;;;;;;;18.20;12.88;;;;;;;;;;698965;28;921;-65
2024/02/27 01:45:34;;;;;;;18.70;13.38;;;;;;;;;;697674;28;1781;-66
2024/02/27 01:46:06;;;;;;;17.80;12.80;;;;;;;;;;699298;28;994;-65
2024/02/27 01:46:28;;;;;;;18.10;13.77;;;;;;;;;;697820;28;4302;-65
2024/02/27 01:46:48;;;;;;;17.55;13.30;;;;;;;;;;701287;28;1525;-65
2024/02/27 01:47:09;;;;;;;17.63;13.37;;;;;;;;;;702638;28;821;-66
2024/02/27 01:47:30;;;;;;;18.47;13.67;;;;;;;;;;700668;28;1748;-66
2024/02/27 01:47:51;;;;;;;18.90;13.70;;;;;;;;;;702465;28;1007;-66
2024/02/27 01:48:12;;;;;;;19.80;13.90;;;;;;;;;;702319;28;1316;-66
2024/02/27 01:48:33;;;;;;;18.45;13.73;;;;;;;;;;700601;28;954;-65
2024/02/27 01:48:55;;;;;;;18.95;14.00;;;;;;;;;;703033;27;939;-66
2024/02/27 01:49:15;;;;;;;18.58;13.90;;;;;;;;;;704844;27;5260;-65
2024/02/27 01:49:35;;;;;;;17.85;13.43;;;;;;;;;;702456;27;1963;-66
2024/02/27 01:49:56;;;;;;;18.43;13.67;;;;;;;;;;705096;27;1509;-66
2024/02/27 01:50:17;;;;;;;17.77;13.40;;;;;;;;;;704819;27;839;-66
2024/02/27 01:50:37;;;;;;;18.25;13.90;;;;;;;;;;704183;27;2458;-67
2024/02/27 01:50:57;;;;;;;18.10;13.53;;;;;;;;;;705811;27;931;-66
2024/02/27 01:51:18;;;;;;;17.53;13.37;;;;;;;;;;706225;27;1056;-66
2024/02/27 01:51:40;;;;;;;18.80;13.98;;;;;;;;;;702699;27;1318;-66
2024/02/27 01:52:00;;;;;;;17.85;13.57;;;;;;;;;;700923;28;900;-66
2024/02/27 01:52:21;;;;;;;17.97;13.90;;;;;;;;;;701038;28;4333;-66
2024/02/27 01:52:41;;;;;;;19.10;14.00;;;;;;;;;;700576;28;1024;-65
2024/02/27 01:53:02;;;;;;;19.10;13.83;;;;;;;;;;703021;28;1320;-65
2024/02/27 01:53:22;;;;;;;18.67;13.10;;;;;;;;;;701183;28;1238;-66
2024/02/27 01:53:44;;;;;;;17.15;12.38;;;;;;;;;;700554;28;1781;-66
2024/02/27 01:54:05;;;;;;;18.65;14.07;;;;;;;;;;705411;27;784;-66
2024/02/27 01:54:26;;;;;;;18.17;13.80;;;;;;;;;;704655;27;1400;-67
2024/02/27 01:54:47;;;;;;;17.95;13.57;;;;;;;;;;703472;28;1364;-65
2024/02/27 01:55:08;;;;;;;18.48;13.90;;;;;;;;;;704017;28;1241;-65
2024/02/27 01:55:29;;;;;;;18.92;13.52;;;;;;;;;;698809;28;4416;-66
2024/02/27 01:55:50;;;;;;;18.92;13.35;;;;;;;;;;698245;28;1294;-66
2024/02/27 01:56:10;;;;;;;19.33;14.27;;;;;;;;;;698660;28;1368;-65
2024/02/27 01:56:31;;;;;;;20.10;14.30;;;;;;;;;;694618;28;1703;-66
2024/02/27 01:56:52;;;;;;;18.00;13.30;;;;;;;;;;696807;28;1511;-66
2024/02/27 01:57:13;;;;;;;18.58;13.68;;;;;;;;;;697245;28;893;-66
2024/02/27 01:57:34;;;;;;;18.45;13.32;;;;;;;;;;697555;28;1992;-64
2024/02/27 01:57:54;;;;;;;17.33;12.70;;;;;;;;;;701585;28;1320;-66
2024/02/27 01:58:14;;;;;;;18.90;14.03;;;;;;;;;;702417;27;4528;-65
2024/02/27 01:58:35;;;;;;;20.50;14.97;;;;;;;;;;702907;27;1573;-66
2024/02/27 01:58:55;;;;;;;18.98;14.00;;;;;;;;;;704172;27;753;-65
2024/02/27 01:59:17;;;;;;;18.23;13.70;;;;;;;;;;701520;28;893;-66
2024/02/27 01:59:38;;;;;;;17.70;13.43;;;;;;;;;;699896;28;1914;-64
2024/02/27 01:59:58;;;;;;;19.15;13.75;;;;;;;;;;702286;28;829;-65
2024/02/27 02:00:20;;;;;;;18.90;14.03;;;;;;;;;;702147;28;1425;-65
2024/02/27 02:00:40;;;;;;;17.67;13.52;;;;;;;;;;696739;28;1977;-65
2024/02/27 02:01:02;;;;;;;17.53;13.30;;;;;;;;;;698799;28;3076;-65
2024/02/27 02:01:24;;;;;;;18.85;14.00;;;;;;;;;;701965;28;4528;-65
2024/02/27 02:01:44;;;;;;;17.80;13.80;;;;;;;;;;699905;28;3545;-65
2024/02/27 02:02:05;;;;;;;18.02;13.50;;;;;;;;;;699548;28;1510;-64
2024/02/27 02:02:33;;;;;;;18.05;13.18;;;;;;;;;;696343;28;1380;-65
2024/02/27 02:02:54;;;;;;;19.23;13.70;;;;;;;;;;695293;28;1496;-65
2024/02/27 02:03:15;;;;;;;19.52;13.77;;;;;;;;;;697961;28;786;-65
2024/02/27 02:03:37;;;;;;;19.58;14.10;;;;;;;;;;697257;28;1022;-65
2024/02/27 02:03:58;;;;;;;18.13;13.65;;;;;;;;;;700770;28;991;-65
2024/02/27 02:04:19;;;;;;;18.27;13.80;;;;;;;;;;703386;27;4553;-65
2024/02/27 02:04:39;;;;;;;19.35;14.35;;;;;;;;;;702372;28;1804;-65